createdAt,value
2019-01-16T00:01:40.384Z,99.90
2019-01-16T00:04:16.696Z,99.90
2019-01-16T00:07:01.066Z,99.90
2019-01-16T00:09:47.814Z,99.90
2019-01-16T00:12:40.367Z,99.90
2019-01-16T00:15:29.925Z,99.90
2019-01-16T00:18:08.911Z,99.90
2019-01-16T00:20:56.306Z,99.90
2019-01-16T00:23:45.455Z,99.90
2019-01-16T00:26:41.159Z,99.90
2019-01-16T00:29:20.396Z,99.90
2019-01-16T00:32:15.763Z,99.90
2019-01-16T00:35:02.553Z,99.90
2019-01-16T00:37:44.113Z,99.90
2019-01-16T00:40:22.403Z,99.90
2019-01-16T00:43:12.045Z,99.90
2019-01-16T00:46:04.699Z,99.90
2019-01-16T00:48:47.661Z,99.90
2019-01-16T00:51:40.040Z,99.90
2019-01-16T00:54:27.852Z,99.90
2019-01-16T00:57:17.293Z,99.90
2019-01-16T01:00:02.474Z,99.90
2019-01-16T01:03:07.398Z,99.90
2019-01-16T01:05:54.204Z,99.90
2019-01-16T01:08:43.830Z,99.90
2019-01-16T01:11:31.292Z,99.90
2019-01-16T01:14:20.628Z,99.90
2019-01-16T01:17:22.336Z,99.90
2019-01-16T01:20:09.113Z,99.90
2019-01-16T01:22:43.202Z,99.90
2019-01-16T01:25:23.436Z,99.90
2019-01-16T01:28:08.022Z,99.90
2019-01-16T01:30:44.734Z,99.90
2019-01-16T01:33:20.507Z,99.90
2019-01-16T01:36:10.318Z,99.90
2019-01-16T01:38:55.598Z,99.90
2019-01-16T01:41:43.956Z,99.90
2019-01-16T01:44:36.556Z,99.90
2019-01-16T01:47:17.795Z,99.90
2019-01-16T01:50:07.719Z,99.90
2019-01-16T01:52:52.877Z,99.90
2019-01-16T01:55:45.351Z,99.90
2019-01-16T01:58:34.727Z,99.90
2019-01-16T02:01:21.509Z,99.90
2019-01-16T02:04:09.723Z,99.90
2019-01-16T02:07:02.242Z,99.90
2019-01-16T02:09:36.231Z,99.90
2019-01-16T02:12:21.659Z,99.90
2019-01-16T02:15:12.617Z,99.90
2019-01-16T02:17:56.621Z,99.90
2019-01-16T02:20:42.562Z,99.90
2019-01-16T02:23:47.149Z,99.90
2019-01-16T02:26:32.340Z,99.90
2019-01-16T02:29:17.556Z,99.90
2019-01-16T02:31:58.184Z,99.90
2019-01-16T02:34:35.808Z,99.90
2019-01-16T02:37:25.603Z,99.90
2019-01-16T02:40:18.784Z,99.90
2019-01-16T02:42:57.042Z,99.90
2019-01-16T02:45:42.208Z,99.90
2019-01-16T02:48:27.218Z,99.90
2019-01-16T02:51:12.152Z,99.90
2019-01-16T02:53:59.250Z,99.90
2019-01-16T02:56:43.285Z,99.90
2019-01-16T02:59:32.561Z,99.90
2019-01-16T03:02:17.822Z,99.90
2019-01-16T03:05:00.009Z,99.90
2019-01-16T03:07:35.508Z,99.90
2019-01-16T03:10:15.045Z,99.90
2019-01-16T03:13:00.463Z,99.90
2019-01-16T03:15:55.920Z,99.90
2019-01-16T03:18:33.431Z,99.90
2019-01-16T03:21:28.756Z,99.90
2019-01-16T03:24:18.305Z,99.90
2019-01-16T03:27:11.854Z,99.90
2019-01-16T03:29:58.604Z,99.90
2019-01-16T03:32:33.948Z,99.90
2019-01-16T03:35:32.623Z,99.90
2019-01-16T03:38:22.203Z,99.90
2019-01-16T03:41:27.050Z,99.90
2019-01-16T03:44:19.384Z,99.90
2019-01-16T03:47:18.030Z,99.90
2019-01-16T03:50:04.796Z,99.90
2019-01-16T03:53:00.317Z,99.90
2019-01-16T03:55:56.128Z,99.90
2019-01-16T03:58:31.413Z,99.90
2019-01-16T04:01:21.268Z,99.90
2019-01-16T04:04:04.878Z,99.90
2019-01-16T04:06:57.350Z,99.90
2019-01-16T04:09:49.934Z,99.90
2019-01-16T04:12:35.519Z,99.90
2019-01-16T04:15:20.209Z,99.90
2019-01-16T04:18:15.751Z,99.90
2019-01-16T04:20:50.769Z,99.90
2019-01-16T04:23:32.126Z,99.90
2019-01-16T04:26:17.329Z,99.90
2019-01-16T04:29:12.251Z,99.90
2019-01-16T04:32:10.990Z,99.90
2019-01-16T04:34:56.290Z,99.90
2019-01-16T04:37:42.999Z,99.90
2019-01-16T04:40:28.890Z,99.90
2019-01-16T04:43:15.679Z,99.90
2019-01-16T04:45:55.049Z,99.90
2019-01-16T04:48:32.462Z,99.90
2019-01-16T04:51:28.227Z,99.90
2019-01-16T04:54:13.261Z,99.90
2019-01-16T04:57:05.618Z,99.90
2019-01-16T04:59:53.031Z,99.90
2019-01-16T05:02:54.694Z,99.90
2019-01-16T05:05:47.349Z,99.90
2019-01-16T05:08:39.792Z,99.90
2019-01-16T05:11:26.075Z,99.90
2019-01-16T05:14:27.484Z,99.90
2019-01-16T05:17:19.134Z,99.90
2019-01-16T05:20:09.931Z,99.90
2019-01-16T05:22:56.890Z,99.90
2019-01-16T05:25:49.559Z,99.90
2019-01-16T05:28:48.237Z,99.90
2019-01-16T05:31:41.528Z,99.90
2019-01-16T05:34:30.841Z,99.90
2019-01-16T05:37:17.633Z,99.90
2019-01-16T05:40:22.355Z,99.90
2019-01-16T05:43:07.334Z,99.90
2019-01-16T05:45:53.246Z,99.90
2019-01-16T05:48:42.755Z,99.90
2019-01-16T05:51:38.721Z,99.90
2019-01-16T05:54:21.494Z,99.90
2019-01-16T05:57:11.279Z,99.90
2019-01-16T05:59:58.408Z,99.90
2019-01-16T06:02:43.613Z,99.90
2019-01-16T06:05:42.661Z,99.90
2019-01-16T06:08:21.731Z,99.90
2019-01-16T06:11:11.037Z,99.90
2019-01-16T06:13:56.076Z,99.90
2019-01-16T06:16:30.436Z,99.90
2019-01-16T06:19:15.842Z,99.90
2019-01-16T06:22:07.630Z,99.90
2019-01-16T06:24:54.388Z,99.90
2019-01-16T06:27:41.168Z,99.90
2019-01-16T06:30:34.886Z,99.90
2019-01-16T06:33:20.303Z,99.90
2019-01-16T06:36:05.267Z,99.90
2019-01-16T06:38:52.053Z,99.90
2019-01-16T06:41:29.130Z,99.90
2019-01-16T06:44:24.900Z,99.90
2019-01-16T06:47:08.126Z,99.90
2019-01-16T06:49:41.964Z,99.90
2019-01-16T06:52:34.437Z,99.90
2019-01-16T06:55:12.598Z,99.90
2019-01-16T06:58:14.573Z,99.90
2019-01-16T07:01:04.241Z,99.90
2019-01-16T07:03:49.686Z,99.90
2019-01-16T07:06:45.034Z,99.90
2019-01-16T07:09:30.415Z,99.90
2019-01-16T07:12:15.639Z,99.90
2019-01-16T07:15:04.960Z,99.90
2019-01-16T07:17:50.157Z,99.90
2019-01-16T07:20:36.952Z,99.90
2019-01-16T07:23:23.912Z,99.90
2019-01-16T07:26:25.414Z,99.90
2019-01-16T07:29:20.299Z,99.90
2019-01-16T07:32:09.868Z,99.90
2019-01-16T07:35:02.436Z,99.90
2019-01-16T07:37:55.247Z,99.90
2019-01-16T07:40:39.451Z,99.90
2019-01-16T07:43:29.270Z,99.90
2019-01-16T07:46:14.466Z,99.90
2019-01-16T07:48:55.026Z,99.90
2019-01-16T07:51:42.578Z,99.90
2019-01-16T07:54:41.096Z,99.90
2019-01-16T07:57:25.288Z,99.90
2019-01-16T08:00:23.993Z,99.90
2019-01-16T08:03:09.413Z,99.90
2019-01-16T08:05:59.269Z,99.90
2019-01-16T08:08:54.777Z,99.90
2019-01-16T08:11:53.523Z,99.90
2019-01-16T08:14:58.445Z,99.90
2019-01-16T08:17:47.778Z,99.90
2019-01-16T08:20:37.327Z,99.90
2019-01-16T08:23:22.465Z,99.90
2019-01-16T08:26:07.653Z,98.10
2019-01-16T08:28:52.923Z,98.30
2019-01-16T08:31:38.177Z,99.90
2019-01-16T08:34:23.436Z,99.90
2019-01-16T08:37:12.042Z,99.90
2019-01-16T08:39:58.795Z,99.90
2019-01-16T08:42:39.013Z,99.90
2019-01-16T08:45:27.205Z,99.90
2019-01-16T08:48:17.473Z,99.90
2019-01-16T08:51:03.724Z,99.50
2019-01-16T08:53:59.471Z,99.10
2019-01-16T08:56:39.628Z,99.90
2019-01-16T08:59:19.624Z,99.90
2019-01-16T09:02:18.783Z,99.90
2019-01-16T09:05:04.559Z,99.90
2019-01-16T09:07:50.022Z,99.90
2019-01-16T09:10:34.020Z,99.90
2019-01-16T09:13:20.151Z,99.90
2019-01-16T09:16:16.954Z,99.90
2019-01-16T09:18:55.203Z,95.60
2019-01-16T09:21:41.965Z,91.40
2019-01-16T09:24:31.549Z,90.70
2019-01-16T09:27:17.247Z,93.20
2019-01-16T09:29:58.546Z,93.10
2019-01-16T09:32:45.345Z,95.20
2019-01-16T09:35:31.773Z,96.70
2019-01-16T09:38:19.307Z,96.10
2019-01-16T09:41:05.067Z,96.90
2019-01-16T09:43:50.020Z,97.90
2019-01-16T09:46:45.949Z,99.00
2019-01-16T09:49:23.071Z,99.30
2019-01-16T09:52:08.182Z,99.30
2019-01-16T09:54:54.184Z,99.50
2019-01-16T09:57:31.697Z,99.90
2019-01-16T10:00:25.047Z,99.90
2019-01-16T10:03:14.618Z,99.90
2019-01-16T10:06:19.485Z,99.40
2019-01-16T10:09:12.574Z,98.70
2019-01-16T10:12:11.345Z,98.70
2019-01-16T10:15:07.189Z,98.00
2019-01-16T10:17:46.278Z,97.70
2019-01-16T10:20:35.829Z,98.30
2019-01-16T10:23:25.554Z,95.30
2019-01-16T10:26:00.753Z,94.60
2019-01-16T10:28:53.409Z,95.00
2019-01-16T10:31:38.356Z,94.60
2019-01-16T10:34:25.180Z,93.50
2019-01-16T10:37:20.873Z,93.20
2019-01-16T10:39:59.313Z,92.30
2019-01-16T10:42:45.581Z,92.10
2019-01-16T10:45:38.309Z,86.00
2019-01-16T10:48:19.199Z,78.80
2019-01-16T10:51:03.128Z,83.70
2019-01-16T10:54:01.457Z,84.10
2019-01-16T10:57:00.522Z,78.90
2019-01-16T10:59:46.022Z,71.70
2019-01-16T11:02:38.355Z,63.50
2019-01-16T11:05:34.642Z,57.50
2019-01-16T11:08:36.551Z,56.10
2019-01-16T11:11:21.955Z,54.00
2019-01-16T11:14:22.966Z,52.70
2019-01-16T11:17:24.700Z,53.40
2019-01-16T11:20:05.713Z,54.00
2019-01-16T11:22:52.182Z,48.30
2019-01-16T11:25:41.453Z,46.70
2019-01-16T11:28:27.980Z,47.00
2019-01-16T11:31:05.744Z,43.20
2019-01-16T11:33:55.303Z,43.80
2019-01-16T11:36:34.546Z,44.20
2019-01-16T11:39:33.284Z,49.70
2019-01-16T11:42:18.484Z,47.00
2019-01-16T11:45:07.804Z,46.80
2019-01-16T11:47:53.088Z,47.90
2019-01-16T11:50:27.807Z,47.20
2019-01-16T11:53:23.182Z,51.80
2019-01-16T11:56:27.902Z,50.60
2019-01-16T11:59:23.506Z,48.60
2019-01-16T12:02:08.675Z,48.10
2019-01-16T12:04:53.711Z,50.30
2019-01-16T12:07:52.079Z,49.40
2019-01-16T12:10:28.928Z,50.20
2019-01-16T12:13:15.725Z,50.80
2019-01-16T12:16:01.017Z,50.30
2019-01-16T12:18:46.047Z,47.20
2019-01-16T12:21:41.486Z,46.30
2019-01-16T12:24:28.281Z,43.50
2019-01-16T12:27:30.095Z,43.00
2019-01-16T12:30:23.859Z,40.30
2019-01-16T12:33:13.172Z,44.20
2019-01-16T12:35:53.598Z,38.70
2019-01-16T12:38:45.915Z,40.70
2019-01-16T12:41:30.826Z,41.00
2019-01-16T12:44:35.288Z,41.40
2019-01-16T12:47:33.994Z,40.90
2019-01-16T12:50:14.008Z,45.10
2019-01-16T12:52:58.944Z,45.40
2019-01-16T12:55:43.853Z,44.00
2019-01-16T12:58:48.322Z,45.70
2019-01-16T13:01:40.836Z,48.30
2019-01-16T13:04:27.020Z,44.80
2019-01-16T13:07:19.393Z,48.20
2019-01-16T13:10:08.941Z,46.50
2019-01-16T13:12:58.363Z,48.10
2019-01-16T13:15:54.090Z,46.50
2019-01-16T13:18:33.440Z,46.30
2019-01-16T13:21:25.993Z,46.20
2019-01-16T13:24:18.663Z,46.40
2019-01-16T13:27:05.697Z,46.70
2019-01-16T13:29:52.449Z,46.90
2019-01-16T13:32:42.360Z,48.70
2019-01-16T13:35:27.618Z,51.00
2019-01-16T13:38:13.257Z,52.60
2019-01-16T13:41:04.909Z,54.10
2019-01-16T13:44:03.538Z,54.50
2019-01-16T13:46:53.103Z,56.80
2019-01-16T13:49:52.015Z,63.10
2019-01-16T13:52:50.921Z,65.80
2019-01-16T13:55:37.726Z,71.20
2019-01-16T13:58:32.282Z,75.00
2019-01-16T14:01:19.088Z,74.80
2019-01-16T14:04:14.484Z,76.30
2019-01-16T14:06:59.742Z,76.60
2019-01-16T14:09:49.520Z,76.80
2019-01-16T14:12:35.579Z,78.20
2019-01-16T14:15:22.337Z,77.50
2019-01-16T14:18:12.169Z,76.50
2019-01-16T14:21:05.702Z,79.10
2019-01-16T14:24:10.649Z,78.10
2019-01-16T14:26:44.439Z,77.30
2019-01-16T14:29:30.034Z,77.30
2019-01-16T14:32:15.355Z,77.50
2019-01-16T14:35:02.516Z,76.70
2019-01-16T14:37:52.183Z,77.00
2019-01-16T14:40:41.469Z,76.80
2019-01-16T14:43:43.387Z,76.70
2019-01-16T14:46:23.273Z,75.60
2019-01-16T14:49:12.866Z,76.20
2019-01-16T14:52:05.435Z,80.30
2019-01-16T14:54:46.594Z,77.00
2019-01-16T14:57:39.223Z,76.20
2019-01-16T15:00:46.525Z,75.20
2019-01-16T15:03:32.184Z,78.30
2019-01-16T15:06:18.966Z,76.40
2019-01-16T15:09:08.838Z,75.90
2019-01-16T15:11:54.323Z,79.60
2019-01-16T15:14:41.082Z,77.70
2019-01-16T15:17:30.694Z,79.90
2019-01-16T15:20:29.564Z,77.40
2019-01-16T15:23:19.148Z,77.70
2019-01-16T15:26:02.315Z,81.20
2019-01-16T15:28:51.886Z,82.90
2019-01-16T15:31:41.156Z,83.60
2019-01-16T15:34:38.641Z,82.50
2019-01-16T15:37:34.547Z,86.90
2019-01-16T15:40:12.447Z,88.90
2019-01-16T15:42:53.962Z,90.90
2019-01-16T15:45:43.528Z,91.00
2019-01-16T15:48:29.271Z,92.00
2019-01-16T15:51:18.654Z,95.00
2019-01-16T15:54:05.468Z,95.20
2019-01-16T15:56:50.883Z,96.60
2019-01-16T15:59:27.106Z,96.80
2019-01-16T16:02:25.825Z,97.20
2019-01-16T16:05:05.024Z,97.20
2019-01-16T16:07:54.690Z,98.20
2019-01-16T16:10:53.425Z,98.40
2019-01-16T16:13:31.397Z,99.10
2019-01-16T16:16:24.117Z,99.30
2019-01-16T16:19:16.198Z,99.90
2019-01-16T16:22:08.502Z,99.90
2019-01-16T16:24:47.735Z,99.90
2019-01-16T16:27:37.592Z,99.90
2019-01-16T16:30:26.992Z,99.90
2019-01-16T16:33:31.845Z,99.90
2019-01-16T16:36:18.631Z,99.90
2019-01-16T16:39:02.013Z,99.90
2019-01-16T16:41:48.815Z,99.90
2019-01-16T16:44:34.407Z,99.90
2019-01-16T16:47:26.677Z,99.90
2019-01-16T16:50:09.784Z,99.90
2019-01-16T16:52:48.043Z,99.90
2019-01-16T16:55:32.510Z,99.90
2019-01-16T16:58:22.193Z,99.90
2019-01-16T17:01:00.189Z,99.90
2019-01-16T17:03:46.979Z,99.90
2019-01-16T17:06:33.873Z,99.90
2019-01-16T17:09:16.492Z,99.90
2019-01-16T17:11:57.783Z,99.90
2019-01-16T17:14:41.187Z,99.90
2019-01-16T17:17:30.525Z,99.90
2019-01-16T17:20:17.314Z,99.90
2019-01-16T17:23:02.708Z,99.90
2019-01-16T17:25:47.894Z,99.90
2019-01-16T17:28:46.623Z,99.90
2019-01-16T17:31:39.241Z,99.90
2019-01-16T17:34:20.546Z,99.90
2019-01-16T17:37:16.707Z,99.90
2019-01-16T17:40:02.294Z,99.90
2019-01-16T17:42:38.227Z,99.90
2019-01-16T17:45:28.574Z,99.90
2019-01-16T17:48:24.119Z,99.90
2019-01-16T17:51:17.488Z,99.90
2019-01-16T17:54:15.972Z,99.90
2019-01-16T17:56:54.997Z,99.90
2019-01-16T17:59:34.948Z,99.90
2019-01-16T18:02:24.266Z,99.90
2019-01-16T18:05:11.095Z,99.90
2019-01-16T18:07:56.106Z,99.90
2019-01-16T18:10:51.524Z,99.90
2019-01-16T18:13:37.587Z,99.90
2019-01-16T18:16:22.745Z,99.90
2019-01-16T18:19:00.914Z,99.90
2019-01-16T18:21:46.127Z,99.90
2019-01-16T18:24:38.978Z,99.90
2019-01-16T18:27:24.842Z,99.90
2019-01-16T18:30:20.309Z,99.90
2019-01-16T18:33:01.707Z,99.90
2019-01-16T18:35:39.239Z,99.90
2019-01-16T18:38:34.741Z,99.90
2019-01-16T18:41:20.216Z,99.90
2019-01-16T18:44:05.663Z,99.90
2019-01-16T18:46:40.877Z,99.90
2019-01-16T18:49:26.899Z,99.90
2019-01-16T18:52:20.110Z,99.90
2019-01-16T18:55:15.506Z,99.90
2019-01-16T18:58:02.306Z,99.90
2019-01-16T19:00:49.457Z,99.90
2019-01-16T19:03:34.839Z,99.90
2019-01-16T19:06:20.670Z,99.90
2019-01-16T19:09:06.660Z,99.90
2019-01-16T19:12:02.227Z,99.90
2019-01-16T19:15:01.151Z,99.90
2019-01-16T19:17:53.872Z,99.90
2019-01-16T19:20:49.670Z,99.90
2019-01-16T19:23:37.970Z,99.90
2019-01-16T19:26:30.809Z,99.90
2019-01-16T19:29:28.251Z,99.90
2019-01-16T19:32:34.178Z,99.90
2019-01-16T19:35:20.364Z,99.90
2019-01-16T19:38:07.015Z,99.90
2019-01-16T19:41:01.662Z,99.90
2019-01-16T19:43:58.847Z,99.90
2019-01-16T19:46:53.829Z,99.90
2019-01-16T19:49:47.231Z,99.90
2019-01-16T19:52:32.693Z,99.90
2019-01-16T19:55:18.159Z,99.90
2019-01-16T19:58:04.972Z,99.90
2019-01-16T20:00:57.742Z,99.90
2019-01-16T20:03:50.464Z,99.90
2019-01-16T20:06:37.398Z,99.90
2019-01-16T20:09:24.707Z,99.90
2019-01-16T20:12:10.219Z,99.90
2019-01-16T20:14:47.649Z,99.90
2019-01-16T20:17:22.653Z,99.90
2019-01-16T20:20:08.157Z,99.90
2019-01-16T20:22:53.659Z,99.90
2019-01-16T20:25:43.016Z,99.90
2019-01-16T20:28:28.478Z,99.90
2019-01-16T20:31:15.294Z,99.90
2019-01-16T20:34:00.690Z,99.90
2019-01-16T20:36:46.178Z,99.90
2019-01-16T20:39:33.088Z,99.90
2019-01-16T20:42:22.507Z,99.90
2019-01-16T20:44:58.914Z,99.90
2019-01-16T20:47:44.360Z,99.90
2019-01-16T20:50:38.928Z,99.90
2019-01-16T20:53:21.380Z,99.90
2019-01-16T20:56:17.100Z,99.90
2019-01-16T20:59:09.710Z,99.90
2019-01-16T21:01:54.986Z,99.90
2019-01-16T21:04:39.168Z,99.90
2019-01-16T21:07:31.767Z,99.90
2019-01-16T21:10:05.816Z,99.90
2019-01-16T21:12:58.172Z,99.90
2019-01-16T21:15:51.960Z,99.90
2019-01-16T21:18:37.363Z,99.90
2019-01-16T21:21:27.311Z,99.90
2019-01-16T21:24:10.420Z,99.90
2019-01-16T21:26:55.699Z,99.90
2019-01-16T21:29:48.590Z,99.90
2019-01-16T21:32:33.067Z,99.90
2019-01-16T21:35:18.157Z,99.90
2019-01-16T21:38:00.369Z,99.90
2019-01-16T21:40:59.655Z,99.90
2019-01-16T21:43:44.959Z,99.90
2019-01-16T21:46:30.375Z,99.90
2019-01-16T21:49:15.438Z,99.90
2019-01-16T21:52:09.806Z,99.90
2019-01-16T21:54:47.749Z,99.90
2019-01-16T21:57:40.456Z,99.90
2019-01-16T22:00:29.360Z,99.90
2019-01-16T22:03:14.321Z,99.90
2019-01-16T22:06:04.130Z,99.90
2019-01-16T22:08:43.036Z,99.90
2019-01-16T22:11:38.862Z,99.90
2019-01-16T22:15:01.962Z,99.90
2019-01-16T22:18:04.054Z,99.90
2019-01-16T22:20:49.302Z,99.90
2019-01-16T22:23:39.120Z,99.90
2019-01-16T22:26:24.876Z,99.90
2019-01-16T22:29:10.340Z,99.90
2019-01-16T22:31:56.009Z,99.90
2019-01-16T22:34:41.963Z,99.90
2019-01-16T22:37:34.490Z,99.90
2019-01-16T22:40:11.513Z,99.90
2019-01-16T22:43:00.870Z,99.90
2019-01-16T22:45:36.745Z,99.90
2019-01-16T22:48:20.306Z,99.90
2019-01-16T22:51:15.831Z,99.90
2019-01-16T22:54:05.470Z,99.90
2019-01-16T22:56:50.675Z,99.90
2019-01-16T22:59:43.044Z,99.90
2019-01-16T23:02:45.311Z,99.90
2019-01-16T23:05:39.481Z,99.90
2019-01-16T23:08:15.351Z,99.90
2019-01-16T23:11:17.562Z,99.90
2019-01-16T23:14:07.131Z,99.90
2019-01-16T23:16:51.462Z,99.90
2019-01-16T23:19:41.380Z,99.90
2019-01-16T23:22:26.386Z,99.90
2019-01-16T23:25:01.290Z,99.90
2019-01-16T23:27:50.689Z,99.90
2019-01-16T23:30:33.361Z,99.90
2019-01-16T23:33:20.146Z,99.90
2019-01-16T23:36:04.568Z,99.90
2019-01-16T23:38:57.200Z,99.90
2019-01-16T23:41:42.439Z,99.90
2019-01-16T23:44:20.702Z,99.90
2019-01-16T23:47:13.563Z,99.90
2019-01-16T23:50:05.435Z,99.90
2019-01-16T23:52:58.180Z,99.90
2019-01-16T23:55:53.862Z,99.90
2019-01-16T23:58:39.178Z,99.90
